sensor_id;sensor_type;location;lat;lon;timestamp;P1;durP1;ratioP1;P2;durP2;ratioP2
44480;SDS011;30184;42.018;23.670;2023-10-19T00:00:14;15.82;;;7.20;;
44480;SDS011;30184;42.018;23.670;2023-10-19T00:02:50;10.48;;;6.13;;
44480;SDS011;30184;42.018;23.670;2023-10-19T00:05:20;11.98;;;6.82;;
44480;SDS011;30184;42.018;23.670;2023-10-19T00:07:56;11.50;;;6.10;;
44480;SDS011;30184;42.018;23.670;2023-10-19T00:10:29;13.93;;;7.90;;
44480;SDS011;30184;42.018;23.670;2023-10-19T00:13:00;10.98;;;6.00;;
44480;SDS011;30184;42.018;23.670;2023-10-19T00:15:32;11.05;;;6.70;;
44480;SDS011;30184;42.018;23.670;2023-10-19T00:18:07;12.75;;;6.47;;
44480;SDS011;30184;42.018;23.670;2023-10-19T00:20:48;12.55;;;6.38;;
44480;SDS011;30184;42.018;23.670;2023-10-19T00:23:32;15.90;;;7.43;;
44480;SDS011;30184;42.018;23.670;2023-10-19T00:26:02;18.15;;;8.18;;
44480;SDS011;30184;42.018;23.670;2023-10-19T00:28:37;13.85;;;6.07;;
44480;SDS011;30184;42.018;23.670;2023-10-19T00:31:06;11.88;;;6.03;;
44480;SDS011;30184;42.018;23.670;2023-10-19T00:33:36;11.82;;;6.40;;
44480;SDS011;30184;42.018;23.670;2023-10-19T00:36:07;15.13;;;8.82;;
44480;SDS011;30184;42.018;23.670;2023-10-19T00:38:41;13.93;;;6.20;;
44480;SDS011;30184;42.018;23.670;2023-10-19T00:41:22;13.23;;;7.30;;
44480;SDS011;30184;42.018;23.670;2023-10-19T00:43:56;12.10;;;6.70;;
44480;SDS011;30184;42.018;23.670;2023-10-19T00:46:30;14.38;;;6.45;;
44480;SDS011;30184;42.018;23.670;2023-10-19T00:49:05;10.18;;;5.75;;
44480;SDS011;30184;42.018;23.670;2023-10-19T00:51:38;13.63;;;6.55;;
44480;SDS011;30184;42.018;23.670;2023-10-19T00:54:21;12.43;;;6.15;;
44480;SDS011;30184;42.018;23.670;2023-10-19T00:57:01;12.30;;;5.68;;
44480;SDS011;30184;42.018;23.670;2023-10-19T00:59:37;7.60;;;5.18;;
44480;SDS011;30184;42.018;23.670;2023-10-19T01:02:11;8.82;;;4.72;;
44480;SDS011;30184;42.018;23.670;2023-10-19T01:04:48;8.68;;;4.13;;
44480;SDS011;30184;42.018;23.670;2023-10-19T01:07:23;13.43;;;5.68;;
44480;SDS011;30184;42.018;23.670;2023-10-19T01:09:57;9.20;;;4.57;;
44480;SDS011;30184;42.018;23.670;2023-10-19T01:12:32;7.47;;;4.22;;
44480;SDS011;30184;42.018;23.670;2023-10-19T01:15:08;9.52;;;5.13;;
44480;SDS011;30184;42.018;23.670;2023-10-19T01:17:40;7.55;;;4.50;;
44480;SDS011;30184;42.018;23.670;2023-10-19T01:20:11;8.45;;;4.43;;
44480;SDS011;30184;42.018;23.670;2023-10-19T01:22:51;9.38;;;4.63;;
44480;SDS011;30184;42.018;23.670;2023-10-19T01:25:42;9.57;;;5.30;;
44480;SDS011;30184;42.018;23.670;2023-10-19T01:28:17;9.45;;;3.85;;
44480;SDS011;30184;42.018;23.670;2023-10-19T01:30:47;12.13;;;5.05;;
44480;SDS011;30184;42.018;23.670;2023-10-19T01:33:19;7.30;;;3.90;;
44480;SDS011;30184;42.018;23.670;2023-10-19T01:35:50;8.70;;;4.88;;
44480;SDS011;30184;42.018;23.670;2023-10-19T01:38:39;12.07;;;5.00;;
44480;SDS011;30184;42.018;23.670;2023-10-19T01:41:08;11.10;;;5.70;;
44480;SDS011;30184;42.018;23.670;2023-10-19T01:43:41;9.07;;;4.45;;
44480;SDS011;30184;42.018;23.670;2023-10-19T01:46:11;6.50;;;2.95;;
44480;SDS011;30184;42.018;23.670;2023-10-19T01:48:41;3.00;;;1.83;;
44480;SDS011;30184;42.018;23.670;2023-10-19T01:51:12;3.22;;;1.52;;
44480;SDS011;30184;42.018;23.670;2023-10-19T01:53:42;2.35;;;1.55;;
44480;SDS011;30184;42.018;23.670;2023-10-19T01:56:13;2.42;;;1.08;;
44480;SDS011;30184;42.018;23.670;2023-10-19T01:58:43;2.13;;;1.00;;
44480;SDS011;30184;42.018;23.670;2023-10-19T02:01:15;8.90;;;2.85;;
44480;SDS011;30184;42.018;23.670;2023-10-19T02:03:48;6.85;;;3.75;;
44480;SDS011;30184;42.018;23.670;2023-10-19T02:06:21;8.52;;;4.13;;
44480;SDS011;30184;42.018;23.670;2023-10-19T02:08:58;4.95;;;2.72;;
44480;SDS011;30184;42.018;23.670;2023-10-19T02:11:37;8.43;;;2.47;;
44480;SDS011;30184;42.018;23.670;2023-10-19T02:14:06;6.07;;;3.05;;
44480;SDS011;30184;42.018;23.670;2023-10-19T02:16:43;5.15;;;3.17;;
44480;SDS011;30184;42.018;23.670;2023-10-19T02:19:14;8.48;;;3.78;;
44480;SDS011;30184;42.018;23.670;2023-10-19T02:21:43;7.13;;;3.92;;
44480;SDS011;30184;42.018;23.670;2023-10-19T02:24:17;15.15;;;3.55;;
44480;SDS011;30184;42.018;23.670;2023-10-19T02:26:48;8.27;;;4.30;;
44480;SDS011;30184;42.018;23.670;2023-10-19T02:29:19;7.45;;;3.95;;
44480;SDS011;30184;42.018;23.670;2023-10-19T02:31:49;5.30;;;3.40;;
44480;SDS011;30184;42.018;23.670;2023-10-19T02:34:20;5.10;;;2.15;;
44480;SDS011;30184;42.018;23.670;2023-10-19T02:36:52;4.40;;;2.20;;
44480;SDS011;30184;42.018;23.670;2023-10-19T02:39:23;4.20;;;2.15;;
44480;SDS011;30184;42.018;23.670;2023-10-19T02:41:55;5.57;;;2.38;;
44480;SDS011;30184;42.018;23.670;2023-10-19T02:44:28;5.40;;;3.03;;
44480;SDS011;30184;42.018;23.670;2023-10-19T02:46:58;7.00;;;3.05;;
44480;SDS011;30184;42.018;23.670;2023-10-19T02:49:29;6.55;;;2.95;;
44480;SDS011;30184;42.018;23.670;2023-10-19T02:51:59;7.30;;;2.50;;
44480;SDS011;30184;42.018;23.670;2023-10-19T02:54:33;12.13;;;1.65;;
44480;SDS011;30184;42.018;23.670;2023-10-19T02:57:02;2.28;;;1.38;;
44480;SDS011;30184;42.018;23.670;2023-10-19T02:59:35;2.88;;;1.42;;
44480;SDS011;30184;42.018;23.670;2023-10-19T03:02:03;2.13;;;1.00;;
44480;SDS011;30184;42.018;23.670;2023-10-19T03:04:44;2.72;;;1.38;;
44480;SDS011;30184;42.018;23.670;2023-10-19T03:07:13;5.68;;;2.17;;
44480;SDS011;30184;42.018;23.670;2023-10-19T03:09:45;5.07;;;1.77;;
44480;SDS011;30184;42.018;23.670;2023-10-19T03:12:16;5.82;;;2.20;;
44480;SDS011;30184;42.018;23.670;2023-10-19T03:14:46;5.15;;;2.10;;
44480;SDS011;30184;42.018;23.670;2023-10-19T03:17:15;3.15;;;2.00;;
44480;SDS011;30184;42.018;23.670;2023-10-19T03:19:45;3.20;;;1.65;;
44480;SDS011;30184;42.018;23.670;2023-10-19T03:22:14;8.80;;;2.03;;
44480;SDS011;30184;42.018;23.670;2023-10-19T03:24:46;2.38;;;1.38;;
44480;SDS011;30184;42.018;23.670;2023-10-19T03:27:15;4.80;;;2.03;;
44480;SDS011;30184;42.018;23.670;2023-10-19T03:29:46;4.18;;;2.40;;
44480;SDS011;30184;42.018;23.670;2023-10-19T03:32:21;2.95;;;1.90;;
44480;SDS011;30184;42.018;23.670;2023-10-19T03:34:54;4.25;;;2.17;;
44480;SDS011;30184;42.018;23.670;2023-10-19T03:37:25;6.93;;;4.28;;
44480;SDS011;30184;42.018;23.670;2023-10-19T03:39:59;14.80;;;6.72;;
44480;SDS011;30184;42.018;23.670;2023-10-19T03:42:33;10.90;;;5.95;;
44480;SDS011;30184;42.018;23.670;2023-10-19T03:45:08;24.90;;;11.95;;
44480;SDS011;30184;42.018;23.670;2023-10-19T03:47:40;16.60;;;7.75;;
44480;SDS011;30184;42.018;23.670;2023-10-19T03:50:11;7.10;;;3.35;;
44480;SDS011;30184;42.018;23.670;2023-10-19T03:52:48;2.58;;;1.85;;
44480;SDS011;30184;42.018;23.670;2023-10-19T03:55:19;11.35;;;5.47;;
44480;SDS011;30184;42.018;23.670;2023-10-19T03:57:51;3.85;;;2.58;;
44480;SDS011;30184;42.018;23.670;2023-10-19T04:00:23;3.03;;;1.67;;
44480;SDS011;30184;42.018;23.670;2023-10-19T04:02:55;2.28;;;1.70;;
44480;SDS011;30184;42.018;23.670;2023-10-19T04:05:26;3.40;;;2.03;;
44480;SDS011;30184;42.018;23.670;2023-10-19T04:07:56;2.03;;;1.10;;
44480;SDS011;30184;42.018;23.670;2023-10-19T04:10:28;2.85;;;1.20;;
44480;SDS011;30184;42.018;23.670;2023-10-19T04:13:11;3.65;;;1.58;;
44480;SDS011;30184;42.018;23.670;2023-10-19T04:15:41;2.47;;;1.33;;
44480;SDS011;30184;42.018;23.670;2023-10-19T04:18:12;3.40;;;2.13;;
44480;SDS011;30184;42.018;23.670;2023-10-19T04:20:43;4.38;;;2.47;;
44480;SDS011;30184;42.018;23.670;2023-10-19T04:23:27;2.85;;;1.60;;
44480;SDS011;30184;42.018;23.670;2023-10-19T04:25:58;5.53;;;2.33;;
44480;SDS011;30184;42.018;23.670;2023-10-19T04:28:32;3.50;;;1.45;;
44480;SDS011;30184;42.018;23.670;2023-10-19T04:31:06;5.25;;;2.00;;
44480;SDS011;30184;42.018;23.670;2023-10-19T04:33:36;5.45;;;1.60;;
44480;SDS011;30184;42.018;23.670;2023-10-19T04:36:05;7.28;;;1.35;;
44480;SDS011;30184;42.018;23.670;2023-10-19T04:38:39;3.17;;;1.80;;
44480;SDS011;30184;42.018;23.670;2023-10-19T04:41:10;3.95;;;1.58;;
44480;SDS011;30184;42.018;23.670;2023-10-19T04:43:40;4.32;;;1.58;;
44480;SDS011;30184;42.018;23.670;2023-10-19T04:46:14;1.45;;;1.00;;
44480;SDS011;30184;42.018;23.670;2023-10-19T04:48:46;3.75;;;1.33;;
44480;SDS011;30184;42.018;23.670;2023-10-19T04:51:17;1.88;;;1.30;;
44480;SDS011;30184;42.018;23.670;2023-10-19T04:53:46;3.30;;;1.45;;
44480;SDS011;30184;42.018;23.670;2023-10-19T04:56:18;2.97;;;1.55;;
44480;SDS011;30184;42.018;23.670;2023-10-19T04:58:48;4.95;;;2.40;;
44480;SDS011;30184;42.018;23.670;2023-10-19T05:01:17;7.28;;;2.97;;
44480;SDS011;30184;42.018;23.670;2023-10-19T05:03:47;10.77;;;3.47;;
44480;SDS011;30184;42.018;23.670;2023-10-19T05:06:17;5.85;;;2.45;;
44480;SDS011;30184;42.018;23.670;2023-10-19T05:08:46;11.05;;;6.20;;
44480;SDS011;30184;42.018;23.670;2023-10-19T05:11:15;7.15;;;3.33;;
44480;SDS011;30184;42.018;23.670;2023-10-19T05:13:47;4.90;;;2.85;;
44480;SDS011;30184;42.018;23.670;2023-10-19T05:16:16;10.00;;;4.25;;
44480;SDS011;30184;42.018;23.670;2023-10-19T05:18:46;7.75;;;3.95;;
44480;SDS011;30184;42.018;23.670;2023-10-19T05:21:15;8.95;;;4.00;;
44480;SDS011;30184;42.018;23.670;2023-10-19T05:23:45;18.08;;;2.75;;
44480;SDS011;30184;42.018;23.670;2023-10-19T05:26:14;7.63;;;4.03;;
44480;SDS011;30184;42.018;23.670;2023-10-19T05:28:43;8.15;;;3.45;;
44480;SDS011;30184;42.018;23.670;2023-10-19T05:31:16;8.10;;;3.30;;
44480;SDS011;30184;42.018;23.670;2023-10-19T05:33:45;6.75;;;2.67;;
44480;SDS011;30184;42.018;23.670;2023-10-19T05:36:16;9.10;;;3.58;;
44480;SDS011;30184;42.018;23.670;2023-10-19T05:38:45;6.45;;;2.75;;
44480;SDS011;30184;42.018;23.670;2023-10-19T05:41:15;5.22;;;2.80;;
44480;SDS011;30184;42.018;23.670;2023-10-19T05:43:46;4.60;;;2.08;;
44480;SDS011;30184;42.018;23.670;2023-10-19T05:46:18;5.65;;;2.60;;
44480;SDS011;30184;42.018;23.670;2023-10-19T05:48:49;5.57;;;2.70;;
44480;SDS011;30184;42.018;23.670;2023-10-19T05:51:19;5.75;;;2.20;;
44480;SDS011;30184;42.018;23.670;2023-10-19T05:53:49;15.02;;;3.45;;
44480;SDS011;30184;42.018;23.670;2023-10-19T05:56:20;5.13;;;3.03;;
44480;SDS011;30184;42.018;23.670;2023-10-19T05:58:49;5.07;;;2.60;;
44480;SDS011;30184;42.018;23.670;2023-10-19T06:01:23;5.22;;;2.85;;
44480;SDS011;30184;42.018;23.670;2023-10-19T06:03:54;6.43;;;2.90;;
44480;SDS011;30184;42.018;23.670;2023-10-19T06:06:23;11.63;;;5.03;;
44480;SDS011;30184;42.018;23.670;2023-10-19T06:08:53;10.07;;;3.13;;
44480;SDS011;30184;42.018;23.670;2023-10-19T06:11:22;4.97;;;2.17;;
44480;SDS011;30184;42.018;23.670;2023-10-19T06:13:52;19.00;;;6.00;;
44480;SDS011;30184;42.018;23.670;2023-10-19T06:16:23;46.58;;;16.33;;
44480;SDS011;30184;42.018;23.670;2023-10-19T06:18:52;11.55;;;4.07;;
44480;SDS011;30184;42.018;23.670;2023-10-19T06:21:22;16.48;;;5.18;;
44480;SDS011;30184;42.018;23.670;2023-10-19T06:23:52;19.92;;;5.22;;
44480;SDS011;30184;42.018;23.670;2023-10-19T06:26:22;6.85;;;3.60;;
44480;SDS011;30184;42.018;23.670;2023-10-19T06:28:51;5.05;;;3.17;;
44480;SDS011;30184;42.018;23.670;2023-10-19T06:31:27;5.63;;;3.30;;
44480;SDS011;30184;42.018;23.670;2023-10-19T06:33:57;10.00;;;4.82;;
44480;SDS011;30184;42.018;23.670;2023-10-19T06:36:28;5.05;;;2.88;;
44480;SDS011;30184;42.018;23.670;2023-10-19T06:38:58;6.80;;;3.53;;
44480;SDS011;30184;42.018;23.670;2023-10-19T06:41:33;5.03;;;2.53;;
44480;SDS011;30184;42.018;23.670;2023-10-19T06:44:03;3.08;;;1.80;;
44480;SDS011;30184;42.018;23.670;2023-10-19T06:46:34;4.70;;;1.60;;
44480;SDS011;30184;42.018;23.670;2023-10-19T06:49:04;2.90;;;1.30;;
44480;SDS011;30184;42.018;23.670;2023-10-19T06:51:34;7.53;;;1.80;;
44480;SDS011;30184;42.018;23.670;2023-10-19T06:54:04;1.80;;;1.33;;
44480;SDS011;30184;42.018;23.670;2023-10-19T06:56:35;2.78;;;1.58;;
44480;SDS011;30184;42.018;23.670;2023-10-19T06:59:06;3.30;;;1.58;;
44480;SDS011;30184;42.018;23.670;2023-10-19T07:01:37;6.32;;;2.50;;
44480;SDS011;30184;42.018;23.670;2023-10-19T07:04:06;4.05;;;2.35;;
44480;SDS011;30184;42.018;23.670;2023-10-19T07:06:35;5.80;;;2.90;;
44480;SDS011;30184;42.018;23.670;2023-10-19T07:09:05;6.72;;;2.88;;
44480;SDS011;30184;42.018;23.670;2023-10-19T07:11:37;7.13;;;4.60;;
44480;SDS011;30184;42.018;23.670;2023-10-19T07:14:07;5.30;;;2.95;;
44480;SDS011;30184;42.018;23.670;2023-10-19T07:16:39;9.15;;;3.22;;
44480;SDS011;30184;42.018;23.670;2023-10-19T07:19:08;8.25;;;4.10;;
44480;SDS011;30184;42.018;23.670;2023-10-19T07:21:37;15.82;;;5.97;;
44480;SDS011;30184;42.018;23.670;2023-10-19T07:24:10;11.10;;;4.20;;
44480;SDS011;30184;42.018;23.670;2023-10-19T07:26:39;10.05;;;4.15;;
44480;SDS011;30184;42.018;23.670;2023-10-19T07:29:19;7.47;;;4.18;;
44480;SDS011;30184;42.018;23.670;2023-10-19T07:31:50;10.10;;;4.50;;
44480;SDS011;30184;42.018;23.670;2023-10-19T07:34:22;13.77;;;4.95;;
44480;SDS011;30184;42.018;23.670;2023-10-19T07:36:55;7.25;;;4.40;;
44480;SDS011;30184;42.018;23.670;2023-10-19T07:39:26;16.65;;;5.28;;
44480;SDS011;30184;42.018;23.670;2023-10-19T07:41:57;9.35;;;5.13;;
44480;SDS011;30184;42.018;23.670;2023-10-19T07:44:26;11.48;;;4.53;;
44480;SDS011;30184;42.018;23.670;2023-10-19T07:46:59;15.98;;;4.93;;
44480;SDS011;30184;42.018;23.670;2023-10-19T07:49:28;16.63;;;7.75;;
44480;SDS011;30184;42.018;23.670;2023-10-19T07:51:58;19.05;;;6.90;;
44480;SDS011;30184;42.018;23.670;2023-10-19T07:54:27;12.18;;;5.10;;
44480;SDS011;30184;42.018;23.670;2023-10-19T07:56:57;9.60;;;5.20;;
44480;SDS011;30184;42.018;23.670;2023-10-19T07:59:30;9.98;;;4.93;;
44480;SDS011;30184;42.018;23.670;2023-10-19T08:02:01;14.73;;;5.75;;
44480;SDS011;30184;42.018;23.670;2023-10-19T08:04:31;11.00;;;4.68;;
44480;SDS011;30184;42.018;23.670;2023-10-19T08:07:01;15.23;;;6.40;;
44480;SDS011;30184;42.018;23.670;2023-10-19T08:09:30;33.22;;;13.18;;
44480;SDS011;30184;42.018;23.670;2023-10-19T08:12:02;16.70;;;7.65;;
44480;SDS011;30184;42.018;23.670;2023-10-19T08:14:33;31.35;;;10.65;;
44480;SDS011;30184;42.018;23.670;2023-10-19T08:17:03;30.48;;;11.52;;
44480;SDS011;30184;42.018;23.670;2023-10-19T08:19:33;31.15;;;13.13;;
44480;SDS011;30184;42.018;23.670;2023-10-19T08:22:03;19.27;;;9.20;;
44480;SDS011;30184;42.018;23.670;2023-10-19T08:24:33;26.23;;;11.07;;
44480;SDS011;30184;42.018;23.670;2023-10-19T08:27:03;16.90;;;9.52;;
44480;SDS011;30184;42.018;23.670;2023-10-19T08:29:33;23.13;;;7.75;;
44480;SDS011;30184;42.018;23.670;2023-10-19T08:32:04;17.38;;;7.78;;
44480;SDS011;30184;42.018;23.670;2023-10-19T08:34:34;11.32;;;6.07;;
44480;SDS011;30184;42.018;23.670;2023-10-19T08:37:04;11.38;;;6.43;;
44480;SDS011;30184;42.018;23.670;2023-10-19T08:39:34;23.38;;;9.68;;
44480;SDS011;30184;42.018;23.670;2023-10-19T08:42:05;20.25;;;8.70;;
44480;SDS011;30184;42.018;23.670;2023-10-19T08:44:35;50.08;;;14.43;;
44480;SDS011;30184;42.018;23.670;2023-10-19T08:47:06;25.70;;;7.93;;
44480;SDS011;30184;42.018;23.670;2023-10-19T08:49:36;26.83;;;10.65;;
44480;SDS011;30184;42.018;23.670;2023-10-19T08:52:05;12.07;;;5.38;;
44480;SDS011;30184;42.018;23.670;2023-10-19T08:54:36;22.65;;;9.35;;
44480;SDS011;30184;42.018;23.670;2023-10-19T08:57:05;15.05;;;7.07;;
44480;SDS011;30184;42.018;23.670;2023-10-19T08:59:35;19.33;;;7.70;;
44480;SDS011;30184;42.018;23.670;2023-10-19T09:02:07;8.27;;;3.78;;
44480;SDS011;30184;42.018;23.670;2023-10-19T09:04:40;11.32;;;6.40;;
44480;SDS011;30184;42.018;23.670;2023-10-19T09:07:11;9.90;;;4.63;;
44480;SDS011;30184;42.018;23.670;2023-10-19T09:09:41;8.38;;;4.28;;
44480;SDS011;30184;42.018;23.670;2023-10-19T09:12:11;8.38;;;4.35;;
44480;SDS011;30184;42.018;23.670;2023-10-19T09:14:41;14.40;;;5.85;;
44480;SDS011;30184;42.018;23.670;2023-10-19T09:17:12;38.40;;;14.48;;
44480;SDS011;30184;42.018;23.670;2023-10-19T09:19:42;19.30;;;6.97;;
44480;SDS011;30184;42.018;23.670;2023-10-19T09:22:15;11.43;;;5.63;;
44480;SDS011;30184;42.018;23.670;2023-10-19T09:24:50;21.27;;;7.50;;
44480;SDS011;30184;42.018;23.670;2023-10-19T09:27:20;9.45;;;4.40;;
44480;SDS011;30184;42.018;23.670;2023-10-19T09:29:50;12.07;;;6.22;;
44480;SDS011;30184;42.018;23.670;2023-10-19T09:32:21;7.72;;;3.65;;
44480;SDS011;30184;42.018;23.670;2023-10-19T09:34:51;9.15;;;5.05;;
44480;SDS011;30184;42.018;23.670;2023-10-19T09:37:21;6.90;;;3.28;;
44480;SDS011;30184;42.018;23.670;2023-10-19T09:39:51;6.47;;;3.20;;
44480;SDS011;30184;42.018;23.670;2023-10-19T09:42:21;6.45;;;4.03;;
44480;SDS011;30184;42.018;23.670;2023-10-19T09:44:54;8.15;;;4.57;;
44480;SDS011;30184;42.018;23.670;2023-10-19T09:47:38;24.85;;;12.80;;
44480;SDS011;30184;42.018;23.670;2023-10-19T09:50:11;18.17;;;7.75;;
44480;SDS011;30184;42.018;23.670;2023-10-19T09:52:40;10.65;;;4.47;;
44480;SDS011;30184;42.018;23.670;2023-10-19T09:55:12;7.20;;;3.72;;
44480;SDS011;30184;42.018;23.670;2023-10-19T09:57:46;7.97;;;4.45;;
44480;SDS011;30184;42.018;23.670;2023-10-19T10:00:20;6.50;;;3.50;;
44480;SDS011;30184;42.018;23.670;2023-10-19T10:02:53;7.90;;;4.43;;
44480;SDS011;30184;42.018;23.670;2023-10-19T10:08:31;6.32;;;3.72;;
44480;SDS011;30184;42.018;23.670;2023-10-19T10:11:13;7.35;;;4.22;;
44480;SDS011;30184;42.018;23.670;2023-10-19T10:13:46;5.68;;;3.17;;
44480;SDS011;30184;42.018;23.670;2023-10-19T10:16:19;6.72;;;3.20;;
44480;SDS011;30184;42.018;23.670;2023-10-19T10:18:54;5.50;;;3.45;;
44480;SDS011;30184;42.018;23.670;2023-10-19T10:21:27;8.27;;;3.70;;
44480;SDS011;30184;42.018;23.670;2023-10-19T10:23:57;8.50;;;4.55;;
44480;SDS011;30184;42.018;23.670;2023-10-19T10:26:28;7.50;;;4.07;;
44480;SDS011;30184;42.018;23.670;2023-10-19T10:29:10;7.55;;;3.75;;
44480;SDS011;30184;42.018;23.670;2023-10-19T10:31:42;7.00;;;3.60;;
44480;SDS011;30184;42.018;23.670;2023-10-19T10:34:41;11.38;;;6.00;;
44480;SDS011;30184;42.018;23.670;2023-10-19T10:37:11;5.63;;;3.28;;
44480;SDS011;30184;42.018;23.670;2023-10-19T10:39:42;7.30;;;2.88;;
44480;SDS011;30184;42.018;23.670;2023-10-19T10:42:13;16.50;;;4.25;;
44480;SDS011;30184;42.018;23.670;2023-10-19T10:44:43;9.43;;;4.95;;
44480;SDS011;30184;42.018;23.670;2023-10-19T10:47:15;9.48;;;3.60;;
44480;SDS011;30184;42.018;23.670;2023-10-19T10:49:51;6.18;;;3.30;;
44480;SDS011;30184;42.018;23.670;2023-10-19T10:52:25;11.00;;;4.38;;
44480;SDS011;30184;42.018;23.670;2023-10-19T10:54:57;5.78;;;3.78;;
44480;SDS011;30184;42.018;23.670;2023-10-19T10:57:30;12.75;;;3.50;;
44480;SDS011;30184;42.018;23.670;2023-10-19T11:00:01;7.65;;;3.90;;
44480;SDS011;30184;42.018;23.670;2023-10-19T11:02:32;7.47;;;3.95;;
44480;SDS011;30184;42.018;23.670;2023-10-19T11:05:04;8.48;;;3.60;;
44480;SDS011;30184;42.018;23.670;2023-10-19T11:07:39;10.30;;;4.80;;
44480;SDS011;30184;42.018;23.670;2023-10-19T11:10:09;7.18;;;3.50;;
44480;SDS011;30184;42.018;23.670;2023-10-19T11:12:38;9.82;;;4.88;;
44480;SDS011;30184;42.018;23.670;2023-10-19T11:15:08;8.63;;;4.28;;
44480;SDS011;30184;42.018;23.670;2023-10-19T11:17:43;8.05;;;3.90;;
44480;SDS011;30184;42.018;23.670;2023-10-19T11:20:22;5.85;;;3.55;;
44480;SDS011;30184;42.018;23.670;2023-10-19T11:22:52;10.15;;;4.40;;
44480;SDS011;30184;42.018;23.670;2023-10-19T11:25:23;11.20;;;5.20;;
44480;SDS011;30184;42.018;23.670;2023-10-19T11:27:55;8.63;;;3.97;;
44480;SDS011;30184;42.018;23.670;2023-10-19T11:30:25;7.45;;;3.90;;
44480;SDS011;30184;42.018;23.670;2023-10-19T11:32:56;5.40;;;2.55;;
44480;SDS011;30184;42.018;23.670;2023-10-19T11:35:29;4.80;;;2.80;;
44480;SDS011;30184;42.018;23.670;2023-10-19T11:38:00;5.70;;;3.42;;
44480;SDS011;30184;42.018;23.670;2023-10-19T11:40:29;5.50;;;3.70;;
44480;SDS011;30184;42.018;23.670;2023-10-19T11:42:59;5.78;;;3.38;;
44480;SDS011;30184;42.018;23.670;2023-10-19T11:45:29;8.85;;;4.13;;
44480;SDS011;30184;42.018;23.670;2023-10-19T11:47:58;7.15;;;3.80;;
44480;SDS011;30184;42.018;23.670;2023-10-19T11:50:29;4.95;;;3.03;;
44480;SDS011;30184;42.018;23.670;2023-10-19T11:52:58;9.15;;;3.70;;
44480;SDS011;30184;42.018;23.670;2023-10-19T11:55:27;8.80;;;3.03;;
44480;SDS011;30184;42.018;23.670;2023-10-19T11:57:57;4.63;;;2.55;;
44480;SDS011;30184;42.018;23.670;2023-10-19T12:00:26;3.80;;;2.42;;
44480;SDS011;30184;42.018;23.670;2023-10-19T12:03:01;5.07;;;3.00;;
44480;SDS011;30184;42.018;23.670;2023-10-19T12:05:32;7.00;;;3.45;;
44480;SDS011;30184;42.018;23.670;2023-10-19T12:08:04;8.43;;;3.88;;
44480;SDS011;30184;42.018;23.670;2023-10-19T12:10:35;6.32;;;3.05;;
44480;SDS011;30184;42.018;23.670;2023-10-19T12:13:05;20.38;;;7.88;;
44480;SDS011;30184;42.018;23.670;2023-10-19T12:15:35;11.60;;;4.53;;
44480;SDS011;30184;42.018;23.670;2023-10-19T12:18:05;7.78;;;4.00;;
44480;SDS011;30184;42.018;23.670;2023-10-19T12:20:37;5.30;;;3.15;;
44480;SDS011;30184;42.018;23.670;2023-10-19T12:23:06;6.78;;;3.85;;
44480;SDS011;30184;42.018;23.670;2023-10-19T12:25:35;12.98;;;3.80;;
44480;SDS011;30184;42.018;23.670;2023-10-19T12:28:16;6.65;;;3.35;;
44480;SDS011;30184;42.018;23.670;2023-10-19T12:30:46;9.48;;;4.43;;
44480;SDS011;30184;42.018;23.670;2023-10-19T12:33:15;9.73;;;4.45;;
44480;SDS011;30184;42.018;23.670;2023-10-19T12:35:46;5.93;;;3.13;;
44480;SDS011;30184;42.018;23.670;2023-10-19T12:38:21;8.43;;;4.05;;
44480;SDS011;30184;42.018;23.670;2023-10-19T12:40:51;8.10;;;4.05;;
44480;SDS011;30184;42.018;23.670;2023-10-19T12:43:21;6.93;;;3.33;;
44480;SDS011;30184;42.018;23.670;2023-10-19T12:45:51;8.85;;;4.13;;
44480;SDS011;30184;42.018;23.670;2023-10-19T12:48:21;6.18;;;3.40;;
44480;SDS011;30184;42.018;23.670;2023-10-19T12:50:54;6.15;;;3.20;;
44480;SDS011;30184;42.018;23.670;2023-10-19T12:53:23;6.05;;;3.35;;
44480;SDS011;30184;42.018;23.670;2023-10-19T12:55:53;5.35;;;2.58;;
44480;SDS011;30184;42.018;23.670;2023-10-19T12:58:22;6.95;;;3.00;;
44480;SDS011;30184;42.018;23.670;2023-10-19T13:00:51;6.82;;;3.78;;
44480;SDS011;30184;42.018;23.670;2023-10-19T13:03:22;9.85;;;4.03;;
44480;SDS011;30184;42.018;23.670;2023-10-19T13:05:56;7.13;;;3.63;;
44480;SDS011;30184;42.018;23.670;2023-10-19T13:08:27;7.88;;;3.65;;
44480;SDS011;30184;42.018;23.670;2023-10-19T13:10:56;10.63;;;3.67;;
44480;SDS011;30184;42.018;23.670;2023-10-19T13:13:31;8.77;;;3.88;;
44480;SDS011;30184;42.018;23.670;2023-10-19T13:16:01;7.63;;;3.88;;
44480;SDS011;30184;42.018;23.670;2023-10-19T13:18:33;9.00;;;4.20;;
44480;SDS011;30184;42.018;23.670;2023-10-19T13:21:04;6.85;;;3.28;;
44480;SDS011;30184;42.018;23.670;2023-10-19T13:23:33;5.95;;;3.03;;
44480;SDS011;30184;42.018;23.670;2023-10-19T13:26:03;8.40;;;3.55;;
44480;SDS011;30184;42.018;23.670;2023-10-19T13:28:44;4.97;;;2.92;;
44480;SDS011;30184;42.018;23.670;2023-10-19T13:31:14;6.60;;;3.65;;
44480;SDS011;30184;42.018;23.670;2023-10-19T13:33:47;6.25;;;2.80;;
44480;SDS011;30184;42.018;23.670;2023-10-19T13:36:18;6.13;;;3.22;;
44480;SDS011;30184;42.018;23.670;2023-10-19T13:38:48;7.32;;;3.28;;
44480;SDS011;30184;42.018;23.670;2023-10-19T13:41:17;5.50;;;2.97;;
44480;SDS011;30184;42.018;23.670;2023-10-19T13:43:47;6.47;;;3.60;;
44480;SDS011;30184;42.018;23.670;2023-10-19T13:46:17;7.35;;;3.63;;
44480;SDS011;30184;42.018;23.670;2023-10-19T13:48:48;7.28;;;3.22;;
44480;SDS011;30184;42.018;23.670;2023-10-19T13:51:19;4.80;;;2.50;;
44480;SDS011;30184;42.018;23.670;2023-10-19T13:53:49;10.98;;;2.80;;
44480;SDS011;30184;42.018;23.670;2023-10-19T13:56:18;5.30;;;3.33;;
44480;SDS011;30184;42.018;23.670;2023-10-19T13:58:48;5.00;;;2.53;;
44480;SDS011;30184;42.018;23.670;2023-10-19T14:01:17;5.72;;;2.55;;
44480;SDS011;30184;42.018;23.670;2023-10-19T14:03:51;7.20;;;2.70;;
44480;SDS011;30184;42.018;23.670;2023-10-19T14:06:24;7.63;;;3.65;;
44480;SDS011;30184;42.018;23.670;2023-10-19T14:08:54;5.20;;;3.08;;
44480;SDS011;30184;42.018;23.670;2023-10-19T14:11:24;7.78;;;3.72;;
44480;SDS011;30184;42.018;23.670;2023-10-19T14:13:53;7.85;;;3.58;;
44480;SDS011;30184;42.018;23.670;2023-10-19T14:16:23;6.65;;;3.88;;
44480;SDS011;30184;42.018;23.670;2023-10-19T14:18:53;14.65;;;6.35;;
44480;SDS011;30184;42.018;23.670;2023-10-19T14:21:25;16.15;;;8.10;;
44480;SDS011;30184;42.018;23.670;2023-10-19T14:23:55;18.80;;;8.13;;
44480;SDS011;30184;42.018;23.670;2023-10-19T14:26:25;14.05;;;6.15;;
44480;SDS011;30184;42.018;23.670;2023-10-19T14:28:55;14.20;;;6.57;;
44480;SDS011;30184;42.018;23.670;2023-10-19T14:31:24;17.50;;;6.78;;
44480;SDS011;30184;42.018;23.670;2023-10-19T14:33:54;13.95;;;6.03;;
44480;SDS011;30184;42.018;23.670;2023-10-19T14:36:27;12.13;;;5.63;;
44480;SDS011;30184;42.018;23.670;2023-10-19T14:38:56;16.73;;;7.15;;
44480;SDS011;30184;42.018;23.670;2023-10-19T14:41:26;15.05;;;6.60;;
44480;SDS011;30184;42.018;23.670;2023-10-19T14:43:55;14.02;;;7.28;;
44480;SDS011;30184;42.018;23.670;2023-10-19T14:46:27;20.75;;;8.95;;
44480;SDS011;30184;42.018;23.670;2023-10-19T14:48:56;18.30;;;8.25;;
44480;SDS011;30184;42.018;23.670;2023-10-19T14:51:28;19.52;;;8.77;;
44480;SDS011;30184;42.018;23.670;2023-10-19T14:53:57;17.17;;;8.18;;
44480;SDS011;30184;42.018;23.670;2023-10-19T14:56:28;15.75;;;7.50;;
44480;SDS011;30184;42.018;23.670;2023-10-19T14:58:57;11.70;;;6.72;;